Thursday, May 24, 2018, 12:32 AM EDT
Back to Local

KGTB, Fort Drum / Wheeler-sack U. S. Army Airfield

Location: Fort Drum, NY, United States Lat: 44.05
Local Time: 12:32 AM EDT ( 4:32 GMT) Lon: -75.733
Time Zone: US/Eastern Elev: 679 ft

Show me the last for .
Show Decoded

2018-05-23 23:56 METAR KGTB 240356Z AUTO 00000KT 10SM CLR 11/10 A3007 RMK AO2 SLP184 T01070101 =
2018-05-23 22:56 METAR KGTB 240256Z AUTO 00000KT 10SM CLR 11/09 A3006 RMK AO2 SLP180 T01130094
                 52015 =
2018-05-23 21:56 METAR KGTB 240156Z AUTO 00000KT 10SM CLR 14/10 A3005 RMK AO2 SLP176 T01380100 =
2018-05-23 20:56 METAR KGTB 240056Z AUTO 24005KT 10SM CLR 15/10 A3003 RMK AO2 SLP170 T01500100 =
2018-05-23 19:56 METAR KGTB 232356Z AUTO 26003KT 10SM CLR 18/12 A3001 RMK AO2 SLP162 T01840115
                 10208 20183 50006 =
2018-05-23 18:56 METAR KGTB 232256Z AUTO 21007KT 10SM CLR 20/11 A3000 RMK AO2 SLP159 T01980113 =
2018-05-23 17:56 METAR KGTB 232156Z AUTO 22009KT 10SM CLR 20/12 A3000 RMK AO2 SLP159 T02030123 =
2018-05-23 16:56 METAR KGTB 232056Z AUTO 23012KT 10SM CLR 21/12 A2999 RMK AO2 SLP155 T02060123
                 55006 =
2018-05-23 15:56 METAR KGTB 231956Z AUTO 25010KT 9SM CLR 21/13 A2999 RMK AO2 SLP155 T02070126 =
2018-05-23 14:56 METAR KGTB 231856Z AUTO 26010KT 10SM CLR 20/13 A3000 RMK AO2 SLP159 T02040129 =
2018-05-23 13:56 METAR KGTB 231756Z AUTO 25012G17KT 10SM CLR 18/13 A3001 RMK AO2 SLP163 T01830125
                 10184 20130 50008 =
2018-05-23 12:56 METAR KGTB 231656Z AUTO 27011G19KT 10SM CLR 17/12 A3002 RMK AO2 SLP166 T01680121
                 =
2018-05-23 11:56 METAR KGTB 231556Z AUTO 26009G15KT 10SM FEW017 18/13 A3001 RMK AO2 SLP163
                 T01760129 =
2018-05-23 10:56 METAR KGTB 231456Z AUTO 26009KT 10SM CLR 18/13 A2999 RMK AO2 SLP156 T01770126
                 50000 =
2018-05-23 09:56 METAR KGTB 231356Z AUTO 25010KT 10SM FEW006 15/15 A2999 RMK AO2 SLP156 T01500150
                 =
2018-05-23 09:46 METAR KGTB 231346Z AUTO 26009KT 10SM BKN006 15/15 A3000 RMK AO2 SLP159 =
2018-05-23 09:36 METAR KGTB 231336Z AUTO 26007KT 10SM BKN005 15/15 A3000 RMK AO2 SLP159 =
2018-05-23 09:06 METAR KGTB 231306Z AUTO 25008KT 10SM OVC004 14/14 A3000 RMK AO2 SLP160 =
2018-05-23 08:56 METAR KGTB 231256Z AUTO 25009KT 10SM OVC003 13/13 A3000 RMK AO2 SLP160 T01340134
                 =
2018-05-23 08:06 METAR KGTB 231206Z AUTO 27005KT 10SM OVC003 14/14 A2999 RMK AO2 CIG 003V005
                 SLP156 =
2018-05-23 07:56 METAR KGTB 231156Z AUTO 27006KT 10SM OVC005 14/14 A2999 RMK AO2 SLP156 70026
                 T01380136 10140 20122 52017 =
2018-05-23 07:36 METAR KGTB 231136Z AUTO 25005KT 10SM BKN006 14/14 A2998 RMK AO2 BKN V FEW SLP153
                 =
2018-05-23 07:06 METAR KGTB 231106Z AUTO 18004KT 10SM SCT001 13/13 A2996 RMK AO2 SLP146 =
2018-05-23 06:56 METAR KGTB 231056Z AUTO 18004KT 4SM BR OVC001 13/13 A2996 RMK AO2 SLP146
                 T01260126 =
2018-05-23 06:51 METAR KGTB 231051Z AUTO 18004KT 4SM BR OVC001 13/13 A2996 RMK AO2 SLP146 =
2018-05-23 06:41 METAR KGTB 231041Z AUTO 20005KT 1 1/2SM BR OVC001 13/13 A2996 RMK AO2 VIS 1/2V1
                 1/2 SLP146 =
2018-05-23 06:36 METAR KGTB 231036Z AUTO 20006KT 3/4SM R21/3000VP6000FT BR OVC001 13/13 A2996 RMK
                 AO2 SLP146 =
2018-05-23 06:16 METAR KGTB 231016Z AUTO 21004KT 1/2SM R21/2600V4000FT FG VV001 12/12 A2995 RMK
                 AO2 SLP143 =
2018-05-23 05:56 METAR KGTB 230956Z AUTO 21004KT 3/8SM R21/3000FT FG VV001 12/12 A2995 RMK AO2
                 SLP143 T01240122 =
2018-05-23 05:51 METAR KGTB 230951Z AUTO 23005KT 3/8SM R21/3000FT FG VV001 12/12 A2995 RMK AO2
                 SLP143 =
2018-05-23 05:41 METAR KGTB 230941Z AUTO 23006KT 1/2SM R21/3000VP6000FT FG OVC002 12/12 A2995 RMK
                 AO2 VIS 1/2V3 SLP143 =
2018-05-23 05:36 METAR KGTB 230936Z AUTO 24005KT 1 3/8SM BR OVC002 12/12 A2995 RMK AO2 VIS 1
                 3/8V7 SLP143 =
2018-05-23 05:16 METAR KGTB 230916Z AUTO 23004KT 10SM OVC002 12/12 A2995 RMK AO2 OVC V BKN SLP143
                 =
2018-05-23 05:06 METAR KGTB 230906Z AUTO 24003KT 10SM OVC004 12/12 A2994 RMK AO2 CIG 004V006
                 SLP140 =
2018-05-23 04:56 METAR KGTB 230856Z AUTO 24003KT 10SM OVC006 12/12 A2994 RMK AO2 CIG 005 RWY03
                 SLP140 T01230123 53007 =
2018-05-23 04:46 METAR KGTB 230846Z AUTO 25003KT 10SM OVC006 12/12 A2994 RMK AO2 SLP140 =
2018-05-23 04:26 METAR KGTB 230826Z AUTO 24003KT 10SM SCT002 OVC007 12/12 A2993 RMK AO2 CIG
                 002V007 CIG 002 RWY03 SLP136 =
2018-05-23 04:16 METAR KGTB 230816Z AUTO 24003KT 8SM BKN002 OVC007 12/12 A2993 RMK AO2 SLP136 =
2018-05-23 03:56 METAR KGTB 230756Z AUTO 24003KT 3SM BR OVC001 12/12 A2992 RMK AO2 SLP133
                 T01230123 =
2018-05-23 03:51 METAR KGTB 230751Z AUTO 24003KT 2 1/2SM BR OVC001 12/12 A2992 RMK AO2 VIS 1
                 7/8V2 1/2 SLP133 =
2018-05-23 03:41 METAR KGTB 230741Z AUTO 24004KT 2SM BR OVC001 12/12 A2992 RMK AO2 VIS 2V3 SLP133
                 =
2018-05-23 03:31 METAR KGTB 230731Z AUTO 27003KT 3SM BR OVC001 12/12 A2992 RMK AO2 VIS 2 1/4
                 RWY15 SLP133 =
2018-05-23 03:21 METAR KGTB 230721Z AUTO 00000KT 1 3/4SM BR OVC001 12/12 A2992 RMK AO2 SLP133 =
2018-05-23 03:11 METAR KGTB 230711Z AUTO 27003KT 1 3/8SM BR OVC001 12/12 A2991 RMK AO2 SLP130 =
2018-05-23 03:01 METAR KGTB 230701Z AUTO 29003KT 1 1/8SM R21/6000FT BR OVC001 12/12 A2991 RMK AO2
                 VIS 5/8 RWY15 SLP130 =
2018-05-23 02:56 METAR KGTB 230656Z AUTO 29003KT 1SM R21/5000VP6000FT BR VV002 12/12 A2991 RMK
                 AO2 SLP130 T01230123 =
2018-05-23 02:46 METAR KGTB 230646Z AUTO 28004KT 1SM R21/5000V6000FT BR VV002 12/12 A2991 RMK AO2
                 SLP130 =
2018-05-23 02:36 METAR KGTB 230636Z AUTO 00000KT 3/4SM R21/3500V5500FT BR VV001 12/12 A2991 RMK
                 AO2 SLP130 =
2018-05-23 01:56 METAR KGTB 230556Z AUTO 27004KT 5/8SM R21/3500FT BR VV001 13/13 A2991 RMK AO2
                 SLPNO 60006 T01250125 10154 20125 52007 =
2018-05-23 01:46 METAR KGTB 230546Z AUTO 26004KT 3/4SM R21/4000V4500FT BR VV001 13/13 A2991 RMK
                 AO2 SLPNO =
2018-05-23 01:36 METAR KGTB 230536Z AUTO 25004KT 5/8SM R21/3500V4500FT BR VV001 13/13 A2991 RMK
                 AO2 SLPNO =
2018-05-23 01:16 METAR KGTB 230516Z AUTO 26004KT 3/4SM R21/4500FT BR VV001 13/13 A2991 RMK AO2
                 SLPNO =
2018-05-23 00:56 METAR KGTB 230456Z AUTO 25004KT 5/8SM R21/3500V4000FT BR VV001 13/13 A2991 RMK
                 AO2 SLPNO T01260126 401660126 =
2018-05-23 00:41 METAR KGTB 230441Z AUTO 26004KT 3/4SM R21/4500V5000FT BR VV001 13/13 A2991 RMK
                 AO2 SLPNO =

Support USWX by starting your Amazon purchase here.